TAF KLAF
KLAF 280520Z 2806/2906 30008KT P6SM SKC FM281600 30010G19KT P6SM SKC FM281800 30015KT P6SM SKC FM290200 30006KT P6SM SKC AMD LTD TO CLD VIS AND WIND TIL 281400=
METAR KLAF
WC KLAF
WS KLAF
WV KLAF